Terminal Aerodrome Forecast
Issued by NWS Wakefield, VA

Home | Current Version | Previous Version | Text Only | Print | Product List | Glossary On
Versions: 1 2 3 4 5 6 7 8 9 10 11 12 13
000
FTUS41 KAKQ 221157 CCA
TAFORF
TAF COR
KORF 221157Z 2212/2312 20005KT 6SM -SHRA BR SCT007 OVC040
      TEMPO 2212/2214 3SM -SHRA BR BKN006
     FM221400 34010KT P6SM BKN025
     FM221600 35012G19KT P6SM SCT050
     FM222300 01012G20KT P6SM FEW050=

USA.gov is the U.S. government's official web portal to all federal, state and local government web resources and services.